sensor_id;sensor_type;location;lat;lon;timestamp;pressure;altitude;pressure_sealevel;temperature;humidity
49397;BME280;35615;41.410;2.194;2022-10-31T00:02:18;101956.25;;;23.66;58.71
49397;BME280;35615;41.410;2.194;2022-10-31T00:04:51;101953.59;;;23.63;58.67
49397;BME280;35615;41.410;2.194;2022-10-31T00:07:23;101950.06;;;23.60;58.85
49397;BME280;35615;41.410;2.194;2022-10-31T00:09:59;101944.81;;;23.66;58.71
49397;BME280;35615;41.410;2.194;2022-10-31T00:12:33;101942.19;;;23.72;58.62
49397;BME280;35615;41.410;2.194;2022-10-31T00:15:04;101948.34;;;23.62;58.99
49397;BME280;35615;41.410;2.194;2022-10-31T00:17:46;101955.34;;;23.60;59.31
49397;BME280;35615;41.410;2.194;2022-10-31T00:20:23;101956.19;;;23.56;59.26
49397;BME280;35615;41.410;2.194;2022-10-31T00:22:57;101956.19;;;23.54;59.22
49397;BME280;35615;41.410;2.194;2022-10-31T00:25:39;101961.53;;;23.62;59.02
49397;BME280;35615;41.410;2.194;2022-10-31T00:28:13;101958.81;;;23.53;59.48
49397;BME280;35615;41.410;2.194;2022-10-31T00:30:55;101951.81;;;23.59;59.08
49397;BME280;35615;41.410;2.194;2022-10-31T00:33:35;101956.25;;;23.62;58.75
49397;BME280;35615;41.410;2.194;2022-10-31T00:36:16;101964.97;;;23.53;59.13
49397;BME280;35615;41.410;2.194;2022-10-31T00:38:55;101952.66;;;23.57;59.08
49397;BME280;35615;41.410;2.194;2022-10-31T00:41:25;101964.09;;;23.54;59.25
49397;BME280;35615;41.410;2.194;2022-10-31T00:44:11;101966.72;;;23.53;59.17
49397;BME280;35615;41.410;2.194;2022-10-31T00:46:44;101968.44;;;23.40;59.37
49397;BME280;35615;41.410;2.194;2022-10-31T00:49:14;101971.09;;;23.49;59.44
49397;BME280;35615;41.410;2.194;2022-10-31T00:51:49;101967.56;;;23.47;59.08
49397;BME280;35615;41.410;2.194;2022-10-31T00:54:19;101964.91;;;23.45;59.18
49397;BME280;35615;41.410;2.194;2022-10-31T00:56:54;101964.91;;;23.42;59.21
49397;BME280;35615;41.410;2.194;2022-10-31T00:59:22;101962.25;;;23.36;59.76
49397;BME280;35615;41.410;2.194;2022-10-31T01:01:50;101962.28;;;23.39;59.35
49397;BME280;35615;41.410;2.194;2022-10-31T01:04:18;101958.66;;;23.19;59.75
49397;BME280;35615;41.410;2.194;2022-10-31T01:06:54;101962.19;;;23.23;59.80
49397;BME280;35615;41.410;2.194;2022-10-31T01:09:26;101961.28;;;23.17;59.65
49397;BME280;35615;41.410;2.194;2022-10-31T01:11:58;101957.66;;;22.97;60.31
49397;BME280;35615;41.410;2.194;2022-10-31T01:14:31;101954.09;;;22.92;60.82
49397;BME280;35615;41.410;2.194;2022-10-31T01:17:04;101958.53;;;22.98;60.30
49397;BME280;35615;41.410;2.194;2022-10-31T01:19:38;101957.66;;;23.02;60.29
49397;BME280;35615;41.410;2.194;2022-10-31T01:22:13;101957.66;;;22.99;60.37
49397;BME280;35615;41.410;2.194;2022-10-31T01:24:40;101954.16;;;23.04;60.26
49397;BME280;35615;41.410;2.194;2022-10-31T01:27:12;101949.75;;;22.99;60.42
49397;BME280;35615;41.410;2.194;2022-10-31T01:29:45;101945.34;;;22.95;59.94
49397;BME280;35615;41.410;2.194;2022-10-31T01:32:23;101954.13;;;23.00;59.90
49397;BME280;35615;41.410;2.194;2022-10-31T01:34:56;101936.56;;;23.00;59.93
49397;BME280;35615;41.410;2.194;2022-10-31T01:37:26;101941.84;;;23.02;59.54
49397;BME280;35615;41.410;2.194;2022-10-31T01:39:56;101936.56;;;22.96;60.02
49397;BME280;35615;41.410;2.194;2022-10-31T01:42:31;101929.53;;;23.01;59.51
49397;BME280;35615;41.410;2.194;2022-10-31T01:45:04;101929.53;;;23.01;59.33
49397;BME280;35615;41.410;2.194;2022-10-31T01:47:43;101929.56;;;23.04;59.18
49397;BME280;35615;41.410;2.194;2022-10-31T01:50:34;101934.81;;;22.98;59.39
49397;BME280;35615;41.410;2.194;2022-10-31T01:53:20;101938.31;;;22.95;59.43
49397;BME280;35615;41.410;2.194;2022-10-31T01:55:52;101933.94;;;23.02;59.40
49397;BME280;35615;41.410;2.194;2022-10-31T01:58:23;101930.34;;;22.90;59.46
49397;BME280;35615;41.410;2.194;2022-10-31T02:01:00;101933.00;;;22.94;59.58
49397;BME280;35615;41.410;2.194;2022-10-31T02:03:33;101932.16;;;22.95;59.14
49397;BME280;35615;41.410;2.194;2022-10-31T02:06:10;101936.56;;;23.03;58.87
49397;BME280;35615;41.410;2.194;2022-10-31T02:08:42;101939.19;;;22.97;59.29
49397;BME280;35615;41.410;2.194;2022-10-31T02:11:10;101927.78;;;23.03;58.85
49397;BME280;35615;41.410;2.194;2022-10-31T02:13:46;101932.19;;;23.01;58.99
49397;BME280;35615;41.410;2.194;2022-10-31T02:16:17;101926.03;;;22.99;59.07
49397;BME280;35615;41.410;2.194;2022-10-31T02:18:51;101923.44;;;23.08;58.58
49397;BME280;35615;41.410;2.194;2022-10-31T02:21:44;101925.16;;;23.03;58.74
49397;BME280;35615;41.410;2.194;2022-10-31T02:40:56;101913.66;;;22.84;59.48
49397;BME280;35615;41.410;2.194;2022-10-31T02:46:24;101912.69;;;22.76;59.17
49397;BME280;35615;41.410;2.194;2022-10-31T02:48:57;101914.44;;;22.80;59.15
49397;BME280;35615;41.410;2.194;2022-10-31T02:51:27;101904.72;;;22.68;59.30
49397;BME280;35615;41.410;2.194;2022-10-31T02:53:55;101909.09;;;22.69;59.12
49397;BME280;35615;41.410;2.194;2022-10-31T02:56:22;101893.31;;;22.69;59.22
49397;BME280;35615;41.410;2.194;2022-10-31T02:59:07;101905.56;;;22.64;59.37
49397;BME280;35615;41.410;2.194;2022-10-31T03:10:35;101901.06;;;22.48;59.51
49397;BME280;35615;41.410;2.194;2022-10-31T03:13:29;101902.84;;;22.50;59.38
49397;BME280;35615;41.410;2.194;2022-10-31T03:16:17;101905.34;;;22.37;59.83
49397;BME280;35615;41.410;2.194;2022-10-31T03:18:58;101901.84;;;22.39;59.67
49397;BME280;35615;41.410;2.194;2022-10-31T03:24:12;101903.69;;;22.46;59.47
49397;BME280;35615;41.410;2.194;2022-10-31T03:26:44;101909.81;;;22.44;59.54
49397;BME280;35615;41.410;2.194;2022-10-31T03:29:16;101909.00;;;22.52;59.32
49397;BME280;35615;41.410;2.194;2022-10-31T03:31:53;101903.69;;;22.46;59.27
49397;BME280;35615;41.410;2.194;2022-10-31T03:34:22;101910.75;;;22.53;59.16
49397;BME280;35615;41.410;2.194;2022-10-31T03:36:56;101898.47;;;22.51;59.22
49397;BME280;35615;41.410;2.194;2022-10-31T03:39:24;101901.06;;;22.48;59.25
49397;BME280;35615;41.410;2.194;2022-10-31T03:41:56;101896.63;;;22.41;59.60
49397;BME280;35615;41.410;2.194;2022-10-31T03:44:25;101900.09;;;22.35;60.04
49397;BME280;35615;41.410;2.194;2022-10-31T03:46:58;101903.66;;;22.45;59.17
49397;BME280;35615;41.410;2.194;2022-10-31T03:49:27;101908.03;;;22.40;59.82
49397;BME280;35615;41.410;2.194;2022-10-31T03:52:02;101907.13;;;22.38;59.40
49397;BME280;35615;41.410;2.194;2022-10-31T03:54:42;101902.69;;;22.33;59.76
49397;BME280;35615;41.410;2.194;2022-10-31T03:57:27;101902.72;;;22.38;59.64
49397;BME280;35615;41.410;2.194;2022-10-31T04:00:16;101904.47;;;22.33;59.86
49397;BME280;35615;41.410;2.194;2022-10-31T04:02:53;101910.63;;;22.38;59.36
49397;BME280;35615;41.410;2.194;2022-10-31T04:05:25;101906.19;;;22.29;59.55
49397;BME280;35615;41.410;2.194;2022-10-31T04:07:58;101905.28;;;22.27;59.89
49397;BME280;35615;41.410;2.194;2022-10-31T04:10:28;101902.63;;;22.27;59.89
49397;BME280;35615;41.410;2.194;2022-10-31T04:13:04;101901.75;;;22.27;59.96
49397;BME280;35615;41.410;2.194;2022-10-31T04:15:44;101897.41;;;22.29;59.63
49397;BME280;35615;41.410;2.194;2022-10-31T04:18:14;101901.66;;;22.13;60.13
49397;BME280;35615;41.410;2.194;2022-10-31T04:20:41;101903.38;;;22.11;60.34
49397;BME280;35615;41.410;2.194;2022-10-31T04:23:20;101899.97;;;22.18;59.87
49397;BME280;35615;41.410;2.194;2022-10-31T04:25:48;101899.00;;;22.13;59.96
49397;BME280;35615;41.410;2.194;2022-10-31T04:28:16;101894.63;;;22.14;59.92
49397;BME280;35615;41.410;2.194;2022-10-31T04:30:48;101891.09;;;22.12;59.68
49397;BME280;35615;41.410;2.194;2022-10-31T04:33:16;101891.97;;;22.09;59.87
49397;BME280;35615;41.410;2.194;2022-10-31T04:35:46;101892.84;;;22.10;59.26
49397;BME280;35615;41.410;2.194;2022-10-31T04:38:14;101890.09;;;22.00;59.64
49397;BME280;35615;41.410;2.194;2022-10-31T04:40:42;101893.75;;;22.12;59.18
49397;BME280;35615;41.410;2.194;2022-10-31T04:43:30;101897.28;;;22.15;59.21
49397;BME280;35615;41.410;2.194;2022-10-31T04:46:02;101894.72;;;22.21;58.77
49397;BME280;35615;41.410;2.194;2022-10-31T04:48:35;101889.38;;;22.17;59.03
49397;BME280;35615;41.410;2.194;2022-10-31T04:51:05;101892.00;;;22.14;59.04
49397;BME280;35615;41.410;2.194;2022-10-31T04:53:32;101897.25;;;22.09;59.35
49397;BME280;35615;41.410;2.194;2022-10-31T04:56:22;101896.25;;;22.04;59.23
49397;BME280;35615;41.410;2.194;2022-10-31T04:58:55;101891.09;;;22.07;59.34
49397;BME280;35615;41.410;2.194;2022-10-31T05:01:35;101883.06;;;21.96;59.27
49397;BME280;35615;41.410;2.194;2022-10-31T05:04:17;101893.50;;;21.90;59.22
49397;BME280;35615;41.410;2.194;2022-10-31T05:06:54;101896.22;;;21.99;59.26
49397;BME280;35615;41.410;2.194;2022-10-31T05:09:30;101895.28;;;21.94;59.28
49397;BME280;35615;41.410;2.194;2022-10-31T05:12:14;101897.84;;;21.85;59.15
49397;BME280;35615;41.410;2.194;2022-10-31T05:15:12;101893.50;;;21.90;59.12
49397;BME280;35615;41.410;2.194;2022-10-31T05:18:11;101897.88;;;21.88;59.14
49397;BME280;35615;41.410;2.194;2022-10-31T05:21:08;101887.34;;;21.85;58.87
49397;BME280;35615;41.410;2.194;2022-10-31T05:23:54;101888.25;;;21.92;58.68
49397;BME280;35615;41.410;2.194;2022-10-31T05:26:35;101891.66;;;21.83;58.76
49397;BME280;35615;41.410;2.194;2022-10-31T05:29:09;101890.06;;;21.96;58.66
49397;BME280;35615;41.410;2.194;2022-10-31T05:31:55;101894.28;;;21.82;58.91
49397;BME280;35615;41.410;2.194;2022-10-31T05:35:02;101890.78;;;21.80;59.22
49397;BME280;35615;41.410;2.194;2022-10-31T05:38:02;101891.72;;;21.86;59.01
49397;BME280;35615;41.410;2.194;2022-10-31T05:40:46;101894.34;;;21.85;59.10
49397;BME280;35615;41.410;2.194;2022-10-31T05:43:25;101904.00;;;21.87;59.05
49397;BME280;35615;41.410;2.194;2022-10-31T05:46:23;101897.66;;;21.67;59.69
49397;BME280;35615;41.410;2.194;2022-10-31T05:49:20;101891.66;;;21.82;59.18
49397;BME280;35615;41.410;2.194;2022-10-31T05:52:11;101903.06;;;21.84;59.07
49397;BME280;35615;41.410;2.194;2022-10-31T05:54:55;101904.81;;;21.82;58.64
49397;BME280;35615;41.410;2.194;2022-10-31T05:57:29;101902.91;;;21.67;59.23
49397;BME280;35615;41.410;2.194;2022-10-31T06:00:17;101909.13;;;21.73;59.13
49397;BME280;35615;41.410;2.194;2022-10-31T06:03:09;101903.91;;;21.77;59.12
49397;BME280;35615;41.410;2.194;2022-10-31T06:05:56;101910.91;;;21.74;59.45
49397;BME280;35615;41.410;2.194;2022-10-31T06:08:38;101917.84;;;21.71;59.48
49397;BME280;35615;41.410;2.194;2022-10-31T06:11:12;101916.09;;;21.70;58.93
49397;BME280;35615;41.410;2.194;2022-10-31T06:13:58;101921.34;;;21.68;59.00
49397;BME280;35615;41.410;2.194;2022-10-31T06:16:36;101923.06;;;21.65;59.22
49397;BME280;35615;41.410;2.194;2022-10-31T06:19:37;101923.13;;;21.71;59.04
49397;BME280;35615;41.410;2.194;2022-10-31T06:22:21;101916.97;;;21.72;58.50
49397;BME280;35615;41.410;2.194;2022-10-31T06:24:58;101917.84;;;21.69;58.40
49397;BME280;35615;41.410;2.194;2022-10-31T06:27:32;101923.91;;;21.62;58.64
49397;BME280;35615;41.410;2.194;2022-10-31T06:30:12;101926.59;;;21.67;58.33
49397;BME280;35615;41.410;2.194;2022-10-31T06:32:42;101927.38;;;21.60;58.28
49397;BME280;35615;41.410;2.194;2022-10-31T06:35:22;101923.09;;;21.68;58.07
49397;BME280;35615;41.410;2.194;2022-10-31T06:37:58;101930.09;;;21.67;58.15
49397;BME280;35615;41.410;2.194;2022-10-31T06:40:38;101929.13;;;21.61;58.54
49397;BME280;35615;41.410;2.194;2022-10-31T06:43:35;101926.47;;;21.58;58.68
49397;BME280;35615;41.410;2.194;2022-10-31T06:46:26;101933.50;;;21.59;58.79
49397;BME280;35615;41.410;2.194;2022-10-31T06:49:16;101930.19;;;21.73;58.51
49397;BME280;35615;41.410;2.194;2022-10-31T06:52:01;101931.97;;;21.78;58.66
49397;BME280;35615;41.410;2.194;2022-10-31T06:54:39;101935.47;;;21.78;58.27
49397;BME280;35615;41.410;2.194;2022-10-31T06:57:18;101928.44;;;21.77;58.20
49397;BME280;35615;41.410;2.194;2022-10-31T06:59:51;101933.84;;;21.91;58.22
49397;BME280;35615;41.410;2.194;2022-10-31T07:03:03;101932.09;;;21.91;58.13
49397;BME280;35615;41.410;2.194;2022-10-31T07:05:32;101938.31;;;21.98;57.61
49397;BME280;35615;41.410;2.194;2022-10-31T07:08:11;101935.72;;;22.04;57.99
49397;BME280;35615;41.410;2.194;2022-10-31T07:10:41;101938.50;;;22.13;57.39
49397;BME280;35615;41.410;2.194;2022-10-31T07:13:16;101944.59;;;22.09;57.66
49397;BME280;35615;41.410;2.194;2022-10-31T07:15:51;101943.72;;;22.07;57.19
49397;BME280;35615;41.410;2.194;2022-10-31T07:18:22;101948.16;;;22.13;57.04
49397;BME280;35615;41.410;2.194;2022-10-31T07:20:49;101956.94;;;22.15;57.17
49397;BME280;35615;41.410;2.194;2022-10-31T07:23:17;101957.03;;;22.27;57.17
49397;BME280;35615;41.410;2.194;2022-10-31T07:26:01;101966.69;;;22.25;57.24
49397;BME280;35615;41.410;2.194;2022-10-31T07:28:38;101965.09;;;22.41;57.14
49397;BME280;35615;41.410;2.194;2022-10-31T07:31:09;101968.63;;;22.43;56.99
49397;BME280;35615;41.410;2.194;2022-10-31T07:33:37;101979.22;;;22.52;57.04
49397;BME280;35615;41.410;2.194;2022-10-31T07:36:28;101971.34;;;22.53;56.89
49397;BME280;35615;41.410;2.194;2022-10-31T07:39:01;101962.56;;;22.56;56.90
49397;BME280;35615;41.410;2.194;2022-10-31T07:41:33;101974.06;;;22.66;56.94
49397;BME280;35615;41.410;2.194;2022-10-31T07:44:01;101966.09;;;22.56;57.46
49397;BME280;35615;41.410;2.194;2022-10-31T07:46:29;101970.47;;;22.57;57.13
49397;BME280;35615;41.410;2.194;2022-10-31T07:49:15;101973.22;;;22.70;56.83
49397;BME280;35615;41.410;2.194;2022-10-31T07:52:02;101966.16;;;22.64;56.61
49397;BME280;35615;41.410;2.194;2022-10-31T07:54:47;101971.44;;;22.69;56.64
49397;BME280;35615;41.410;2.194;2022-10-31T07:57:24;101972.41;;;22.78;56.37
49397;BME280;35615;41.410;2.194;2022-10-31T07:59:52;101974.16;;;22.78;56.13
49397;BME280;35615;41.410;2.194;2022-10-31T08:02:24;101958.50;;;22.95;55.73
49397;BME280;35615;41.410;2.194;2022-10-31T08:05:33;101968.91;;;22.79;55.36
49397;BME280;35615;41.410;2.194;2022-10-31T08:08:19;101961.88;;;22.81;55.18
49397;BME280;35615;41.410;2.194;2022-10-31T08:10:49;101962.84;;;22.86;55.38
49397;BME280;35615;41.410;2.194;2022-10-31T08:13:17;101961.19;;;23.02;54.89
49397;BME280;35615;41.410;2.194;2022-10-31T08:15:49;101966.56;;;23.17;54.74
49397;BME280;35615;41.410;2.194;2022-10-31T08:18:23;101962.22;;;23.35;54.47
49397;BME280;35615;41.410;2.194;2022-10-31T08:20:51;101964.09;;;23.51;53.96
49397;BME280;35615;41.410;2.194;2022-10-31T08:23:20;101974.75;;;23.72;53.78
49397;BME280;35615;41.410;2.194;2022-10-31T08:25:49;101979.03;;;23.51;53.61
49397;BME280;35615;41.410;2.194;2022-10-31T08:28:16;101979.16;;;23.76;53.22
49397;BME280;35615;41.410;2.194;2022-10-31T08:30:48;101973.88;;;23.81;53.14
49397;BME280;35615;41.410;2.194;2022-10-31T08:33:33;101973.03;;;23.88;53.37
49397;BME280;35615;41.410;2.194;2022-10-31T08:36:22;101972.19;;;24.06;52.98
49397;BME280;35615;41.410;2.194;2022-10-31T08:38:58;101964.31;;;24.17;53.00
49397;BME280;35615;41.410;2.194;2022-10-31T08:41:29;101970.50;;;24.32;52.49
49397;BME280;35615;41.410;2.194;2022-10-31T08:43:58;101965.22;;;24.34;51.98
49397;BME280;35615;41.410;2.194;2022-10-31T08:46:29;101959.06;;;24.53;52.21
49397;BME280;35615;41.410;2.194;2022-10-31T08:48:57;101956.44;;;24.61;51.94
49397;BME280;35615;41.410;2.194;2022-10-31T08:51:24;101955.50;;;24.79;51.83
49397;BME280;35615;41.410;2.194;2022-10-31T08:54:06;101939.66;;;24.76;51.49
49397;BME280;35615;41.410;2.194;2022-10-31T08:56:53;101951.09;;;24.72;51.21
49397;BME280;35615;41.410;2.194;2022-10-31T08:59:44;101941.44;;;24.66;51.04
49397;BME280;35615;41.410;2.194;2022-10-31T09:02:39;101945.84;;;24.56;52.06
49397;BME280;35615;41.410;2.194;2022-10-31T09:05:07;101954.66;;;24.55;51.71
49397;BME280;35615;41.410;2.194;2022-10-31T09:07:37;101952.03;;;24.61;51.91
49397;BME280;35615;41.410;2.194;2022-10-31T09:10:05;101951.13;;;24.64;51.34
49397;BME280;35615;41.410;2.194;2022-10-31T09:12:35;101955.50;;;24.70;51.18
49397;BME280;35615;41.410;2.194;2022-10-31T09:15:41;101952.81;;;24.94;50.95
49397;BME280;35615;41.410;2.194;2022-10-31T09:18:23;101951.97;;;25.09;51.07
49397;BME280;35615;41.410;2.194;2022-10-31T09:21:04;101953.66;;;25.30;50.98
49397;BME280;35615;41.410;2.194;2022-10-31T09:23:42;101957.94;;;25.72;49.20
49397;BME280;35615;41.410;2.194;2022-10-31T09:26:15;101956.84;;;26.00;48.96
49397;BME280;35615;41.410;2.194;2022-10-31T09:29:05;101954.84;;;26.33;47.91
49397;BME280;35615;41.410;2.194;2022-10-31T09:31:38;101951.94;;;26.67;47.83
49397;BME280;35615;41.410;2.194;2022-10-31T09:34:43;101953.38;;;27.00;46.38
49397;BME280;35615;41.410;2.194;2022-10-31T09:37:22;101943.34;;;27.31;46.26
49397;BME280;35615;41.410;2.194;2022-10-31T09:39:53;101950.22;;;27.45;46.30
49397;BME280;35615;41.410;2.194;2022-10-31T09:42:58;101946.16;;;27.18;45.74
49397;BME280;35615;41.410;2.194;2022-10-31T09:45:38;101945.13;;;27.30;45.47
49397;BME280;35615;41.410;2.194;2022-10-31T09:52:21;101948.22;;;27.66;45.06
49397;BME280;35615;41.410;2.194;2022-10-31T09:55:15;101941.09;;;27.68;44.86
49397;BME280;35615;41.410;2.194;2022-10-31T09:57:54;101932.22;;;27.70;45.01
49397;BME280;35615;41.410;2.194;2022-10-31T10:00:35;101940.34;;;27.57;44.88
49397;BME280;35615;41.410;2.194;2022-10-31T10:03:31;101942.22;;;27.50;44.50
49397;BME280;35615;41.410;2.194;2022-10-31T10:06:30;101941.78;;;27.84;44.66
49397;BME280;35615;41.410;2.194;2022-10-31T10:09:41;101940.66;;;27.98;44.72
49397;BME280;35615;41.410;2.194;2022-10-31T10:16:17;101939.13;;;27.84;43.74
49397;BME280;35615;41.410;2.194;2022-10-31T10:19:07;101939.53;;;28.16;43.19
49397;BME280;35615;41.410;2.194;2022-10-31T10:22:05;101942.25;;;28.10;43.14
49397;BME280;35615;41.410;2.194;2022-10-31T10:28:02;101930.84;;;29.07;41.74
49397;BME280;35615;41.410;2.194;2022-10-31T10:30:46;101938.41;;;29.28;41.48
49397;BME280;35615;41.410;2.194;2022-10-31T10:33:55;101919.41;;;29.45;40.65
49397;BME280;35615;41.410;2.194;2022-10-31T10:39:25;101905.81;;;29.97;39.88
49397;BME280;35615;41.410;2.194;2022-10-31T10:42:09;101900.28;;;30.05;39.93
49397;BME280;35615;41.410;2.194;2022-10-31T10:45:22;101897.13;;;30.26;39.37
49397;BME280;35615;41.410;2.194;2022-10-31T10:48:57;101895.34;;;30.59;39.59
49397;BME280;35615;41.410;2.194;2022-10-31T10:51:22;101898.38;;;30.80;38.24
49397;BME280;35615;41.410;2.194;2022-10-31T11:00:23;101887.72;;;31.98;37.20
49397;BME280;35615;41.410;2.194;2022-10-31T11:02:55;101888.41;;;32.04;36.80
49397;BME280;35615;41.410;2.194;2022-10-31T11:05:35;101889.50;;;32.24;35.89
49397;BME280;35615;41.410;2.194;2022-10-31T11:08:07;101889.78;;;32.67;36.26
49397;BME280;35615;41.410;2.194;2022-10-31T11:10:36;101895.31;;;32.88;36.75
49397;BME280;35615;41.410;2.194;2022-10-31T11:18:38;101877.09;;;32.98;35.81
49397;BME280;35615;41.410;2.194;2022-10-31T11:21:29;101882.97;;;31.79;37.95
49397;BME280;35615;41.410;2.194;2022-10-31T11:26:42;101875.84;;;32.06;37.77
49397;BME280;35615;41.410;2.194;2022-10-31T11:29:21;101872.38;;;32.79;36.72
49397;BME280;35615;41.410;2.194;2022-10-31T11:32:43;101875.34;;;32.48;37.19
49397;BME280;35615;41.410;2.194;2022-10-31T11:35:30;101874.75;;;31.86;37.97
49397;BME280;35615;41.410;2.194;2022-10-31T11:38:20;101865.16;;;32.06;38.25
49397;BME280;35615;41.410;2.194;2022-10-31T11:41:19;101869.91;;;32.50;37.27
49397;BME280;35615;41.410;2.194;2022-10-31T11:46:46;101864.25;;;33.07;36.07
49397;BME280;35615;41.410;2.194;2022-10-31T11:52:33;101856.31;;;32.31;38.01
49397;BME280;35615;41.410;2.194;2022-10-31T11:58:25;101850.59;;;31.89;39.29
49397;BME280;35615;41.410;2.194;2022-10-31T12:00:56;101847.81;;;32.18;38.45
49397;BME280;35615;41.410;2.194;2022-10-31T12:06:48;101838.38;;;31.24;40.17
49397;BME280;35615;41.410;2.194;2022-10-31T12:09:26;101828.88;;;30.84;41.36
49397;BME280;35615;41.410;2.194;2022-10-31T12:15:15;101832.41;;;30.20;42.81
49397;BME280;35615;41.410;2.194;2022-10-31T12:23:57;101813.34;;;30.68;42.29
49397;BME280;35615;41.410;2.194;2022-10-31T12:29:42;101808.31;;;32.26;39.67
49397;BME280;35615;41.410;2.194;2022-10-31T12:35:44;101795.78;;;33.00;37.51
49397;BME280;35615;41.410;2.194;2022-10-31T12:39:02;101794.81;;;33.48;36.77
49397;BME280;35615;41.410;2.194;2022-10-31T12:41:58;101794.75;;;33.49;36.71
49397;BME280;35615;41.410;2.194;2022-10-31T12:48:05;101777.41;;;33.58;36.32
49397;BME280;35615;41.410;2.194;2022-10-31T12:57:01;101774.41;;;32.75;37.83
49397;BME280;35615;41.410;2.194;2022-10-31T12:59:48;101783.06;;;32.58;38.01
49397;BME280;35615;41.410;2.194;2022-10-31T13:05:32;101766.00;;;31.88;39.66
49397;BME280;35615;41.410;2.194;2022-10-31T13:08:06;101762.84;;;31.20;40.67
49397;BME280;35615;41.410;2.194;2022-10-31T13:10:52;101760.00;;;31.27;41.15
49397;BME280;35615;41.410;2.194;2022-10-31T13:13:37;101766.22;;;30.98;41.09
49397;BME280;35615;41.410;2.194;2022-10-31T13:19:44;101757.56;;;30.27;42.98
49397;BME280;35615;41.410;2.194;2022-10-31T13:22:19;101759.44;;;30.86;41.92
49397;BME280;35615;41.410;2.194;2022-10-31T13:25:23;101750.56;;;31.13;41.48
49397;BME280;35615;41.410;2.194;2022-10-31T13:28:38;101753.41;;;31.37;41.24
49397;BME280;35615;41.410;2.194;2022-10-31T13:31:14;101755.31;;;30.76;41.93
49397;BME280;35615;41.410;2.194;2022-10-31T13:33:49;101753.84;;;30.95;42.09
49397;BME280;35615;41.410;2.194;2022-10-31T13:39:23;101761.16;;;30.26;43.78
49397;BME280;35615;41.410;2.194;2022-10-31T13:45:32;101766.72;;;29.47;45.50
49397;BME280;35615;41.410;2.194;2022-10-31T13:48:44;101749.19;;;29.74;44.86
49397;BME280;35615;41.410;2.194;2022-10-31T13:51:11;101767.22;;;28.84;47.10
49397;BME280;35615;41.410;2.194;2022-10-31T13:53:58;101763.75;;;28.81;47.25
49397;BME280;35615;41.410;2.194;2022-10-31T13:56:36;101761.16;;;28.78;47.45
49397;BME280;35615;41.410;2.194;2022-10-31T13:59:36;101760.06;;;29.28;46.35
49397;BME280;35615;41.410;2.194;2022-10-31T14:02:25;101757.31;;;28.92;46.81
49397;BME280;35615;41.410;2.194;2022-10-31T14:05:37;101760.84;;;28.51;48.51
49397;BME280;35615;41.410;2.194;2022-10-31T14:08:31;101758.78;;;28.64;47.98
49397;BME280;35615;41.410;2.194;2022-10-31T14:11:34;101753.13;;;28.79;48.35
49397;BME280;35615;41.410;2.194;2022-10-31T14:14:03;101753.53;;;28.61;48.00
49397;BME280;35615;41.410;2.194;2022-10-31T14:16:56;101758.72;;;28.21;49.40
49397;BME280;35615;41.410;2.194;2022-10-31T14:19:32;101752.09;;;28.45;48.69
49397;BME280;35615;41.410;2.194;2022-10-31T14:22:18;101753.81;;;28.47;48.49
49397;BME280;35615;41.410;2.194;2022-10-31T14:24:58;101756.78;;;28.32;49.02
49397;BME280;35615;41.410;2.194;2022-10-31T14:27:33;101756.41;;;28.02;49.70
49397;BME280;35615;41.410;2.194;2022-10-31T14:30:27;101759.44;;;27.81;50.44
49397;BME280;35615;41.410;2.194;2022-10-31T14:33:22;101766.22;;;27.99;50.10
49397;BME280;35615;41.410;2.194;2022-10-31T14:36:04;101764.22;;;27.58;51.13
49397;BME280;35615;41.410;2.194;2022-10-31T14:42:10;101750.75;;;28.21;49.87
49397;BME280;35615;41.410;2.194;2022-10-31T14:48:16;101757.13;;;28.58;49.03
49397;BME280;35615;41.410;2.194;2022-10-31T14:50:56;101761.84;;;28.44;49.47
49397;BME280;35615;41.410;2.194;2022-10-31T14:53:27;101760.06;;;28.45;49.71
49397;BME280;35615;41.410;2.194;2022-10-31T14:56:00;101745.56;;;28.59;48.90
49397;BME280;35615;41.410;2.194;2022-10-31T14:58:45;101759.09;;;28.49;49.73
49397;BME280;35615;41.410;2.194;2022-10-31T15:01:34;101755.03;;;28.31;50.19
49397;BME280;35615;41.410;2.194;2022-10-31T15:04:30;101755.75;;;28.39;49.77
49397;BME280;35615;41.410;2.194;2022-10-31T15:07:18;101757.97;;;28.16;51.00
49397;BME280;35615;41.410;2.194;2022-10-31T15:10:03;101764.34;;;28.04;51.48
49397;BME280;35615;41.410;2.194;2022-10-31T15:12:39;101766.03;;;28.10;51.11
49397;BME280;35615;41.410;2.194;2022-10-31T15:15:14;101772.91;;;27.72;52.40
49397;BME280;35615;41.410;2.194;2022-10-31T15:18:00;101772.06;;;27.68;52.53
49397;BME280;35615;41.410;2.194;2022-10-31T15:20:45;101775.66;;;27.63;52.67
49397;BME280;35615;41.410;2.194;2022-10-31T15:23:47;101767.97;;;27.46;53.44
49397;BME280;35615;41.410;2.194;2022-10-31T15:26:29;101771.63;;;27.37;53.55
49397;BME280;35615;41.410;2.194;2022-10-31T15:29:05;101770.59;;;27.47;53.08
49397;BME280;35615;41.410;2.194;2022-10-31T15:31:32;101766.47;;;27.28;53.77
49397;BME280;35615;41.410;2.194;2022-10-31T15:34:14;101770.72;;;27.40;53.88
49397;BME280;35615;41.410;2.194;2022-10-31T15:36:50;101766.16;;;27.49;53.17
49397;BME280;35615;41.410;2.194;2022-10-31T15:39:18;101765.47;;;27.35;53.35
49397;BME280;35615;41.410;2.194;2022-10-31T15:41:52;101770.91;;;27.28;54.06
49397;BME280;35615;41.410;2.194;2022-10-31T15:44:34;101772.59;;;27.33;54.01
49397;BME280;35615;41.410;2.194;2022-10-31T15:47:22;101772.06;;;27.08;54.84
49397;BME280;35615;41.410;2.194;2022-10-31T15:50:04;101766.84;;;27.02;55.38
49397;BME280;35615;41.410;2.194;2022-10-31T15:52:51;101761.34;;;27.16;54.81
49397;BME280;35615;41.410;2.194;2022-10-31T15:55:26;101775.44;;;27.19;54.99